sensor_id;sensor_type;location;lat;lon;timestamp;P1;durP1;ratioP1;P2;durP2;ratioP2
33926;SDS011;20485;50.992;5.550;2023-04-24T00:00:10;15.25;;;7.43;;
33926;SDS011;20485;50.992;5.550;2023-04-24T00:02:39;11.52;;;5.95;;
33926;SDS011;20485;50.992;5.550;2023-04-24T00:05:06;14.65;;;6.20;;
33926;SDS011;20485;50.992;5.550;2023-04-24T00:07:33;13.23;;;6.55;;
33926;SDS011;20485;50.992;5.550;2023-04-24T00:09:59;15.65;;;6.53;;
33926;SDS011;20485;50.992;5.550;2023-04-24T00:12:25;13.18;;;7.90;;
33926;SDS011;20485;50.992;5.550;2023-04-24T00:14:51;17.50;;;7.38;;
33926;SDS011;20485;50.992;5.550;2023-04-24T00:17:17;16.70;;;7.65;;
33926;SDS011;20485;50.992;5.550;2023-04-24T00:20:07;15.75;;;8.93;;
33926;SDS011;20485;50.992;5.550;2023-04-24T00:22:35;15.57;;;8.38;;
33926;SDS011;20485;50.992;5.550;2023-04-24T00:25:01;18.73;;;10.27;;
33926;SDS011;20485;50.992;5.550;2023-04-24T00:27:27;24.08;;;9.68;;
33926;SDS011;20485;50.992;5.550;2023-04-24T00:29:52;20.80;;;9.10;;
33926;SDS011;20485;50.992;5.550;2023-04-24T00:32:28;17.15;;;9.77;;
33926;SDS011;20485;50.992;5.550;2023-04-24T00:34:54;27.30;;;10.80;;
33926;SDS011;20485;50.992;5.550;2023-04-24T00:37:20;21.10;;;10.68;;
33926;SDS011;20485;50.992;5.550;2023-04-24T00:39:45;19.50;;;9.65;;
33926;SDS011;20485;50.992;5.550;2023-04-24T00:42:11;21.90;;;10.70;;
33926;SDS011;20485;50.992;5.550;2023-04-24T00:44:37;20.48;;;10.23;;
33926;SDS011;20485;50.992;5.550;2023-04-24T00:47:03;20.00;;;10.18;;
33926;SDS011;20485;50.992;5.550;2023-04-24T00:49:29;22.63;;;10.43;;
33926;SDS011;20485;50.992;5.550;2023-04-24T00:51:54;20.65;;;10.10;;
33926;SDS011;20485;50.992;5.550;2023-04-24T00:54:24;19.00;;;10.57;;
33926;SDS011;20485;50.992;5.550;2023-04-24T00:56:50;18.63;;;10.98;;
33926;SDS011;20485;50.992;5.550;2023-04-24T00:59:16;27.75;;;11.73;;
33926;SDS011;20485;50.992;5.550;2023-04-24T01:01:46;19.33;;;11.20;;
33926;SDS011;20485;50.992;5.550;2023-04-24T01:04:12;31.27;;;12.93;;
33926;SDS011;20485;50.992;5.550;2023-04-24T01:06:38;27.23;;;11.65;;
33926;SDS011;20485;50.992;5.550;2023-04-24T01:09:05;30.08;;;12.65;;
33926;SDS011;20485;50.992;5.550;2023-04-24T01:11:33;25.33;;;11.93;;
33926;SDS011;20485;50.992;5.550;2023-04-24T01:13:58;26.15;;;12.98;;
33926;SDS011;20485;50.992;5.550;2023-04-24T01:16:25;29.98;;;13.27;;
33926;SDS011;20485;50.992;5.550;2023-04-24T01:18:51;24.73;;;12.90;;
33926;SDS011;20485;50.992;5.550;2023-04-24T01:21:16;23.10;;;11.82;;
33926;SDS011;20485;50.992;5.550;2023-04-24T01:23:45;24.25;;;12.23;;
33926;SDS011;20485;50.992;5.550;2023-04-24T01:26:12;27.98;;;12.82;;
33926;SDS011;20485;50.992;5.550;2023-04-24T01:28:39;25.23;;;12.93;;
33926;SDS011;20485;50.992;5.550;2023-04-24T01:31:05;28.58;;;13.73;;
33926;SDS011;20485;50.992;5.550;2023-04-24T01:33:31;26.08;;;12.43;;
33926;SDS011;20485;50.992;5.550;2023-04-24T01:35:57;34.50;;;14.32;;
33926;SDS011;20485;50.992;5.550;2023-04-24T01:38:23;26.60;;;11.93;;
33926;SDS011;20485;50.992;5.550;2023-04-24T01:40:49;25.23;;;12.05;;
33926;SDS011;20485;50.992;5.550;2023-04-24T01:43:16;25.92;;;11.95;;
33926;SDS011;20485;50.992;5.550;2023-04-24T01:45:41;27.02;;;12.40;;
33926;SDS011;20485;50.992;5.550;2023-04-24T01:48:07;23.55;;;12.32;;
33926;SDS011;20485;50.992;5.550;2023-04-24T01:50:33;29.58;;;12.40;;
33926;SDS011;20485;50.992;5.550;2023-04-24T01:52:58;27.10;;;12.63;;
33926;SDS011;20485;50.992;5.550;2023-04-24T01:55:24;32.63;;;12.90;;
33926;SDS011;20485;50.992;5.550;2023-04-24T01:57:52;30.13;;;12.70;;
33926;SDS011;20485;50.992;5.550;2023-04-24T02:00:20;33.30;;;13.13;;
33926;SDS011;20485;50.992;5.550;2023-04-24T02:02:46;31.70;;;13.07;;
33926;SDS011;20485;50.992;5.550;2023-04-24T02:05:11;26.08;;;13.10;;
33926;SDS011;20485;50.992;5.550;2023-04-24T02:07:37;23.30;;;11.95;;
33926;SDS011;20485;50.992;5.550;2023-04-24T02:10:03;29.25;;;12.68;;
33926;SDS011;20485;50.992;5.550;2023-04-24T02:12:29;25.40;;;12.38;;
33926;SDS011;20485;50.992;5.550;2023-04-24T02:14:55;28.58;;;12.40;;
33926;SDS011;20485;50.992;5.550;2023-04-24T02:17:21;22.20;;;12.35;;
33926;SDS011;20485;50.992;5.550;2023-04-24T02:19:47;33.63;;;13.10;;
33926;SDS011;20485;50.992;5.550;2023-04-24T02:22:13;26.42;;;12.75;;
33926;SDS011;20485;50.992;5.550;2023-04-24T02:24:38;26.00;;;12.75;;
33926;SDS011;20485;50.992;5.550;2023-04-24T02:27:04;27.70;;;12.60;;
33926;SDS011;20485;50.992;5.550;2023-04-24T02:29:30;30.30;;;12.63;;
33926;SDS011;20485;50.992;5.550;2023-04-24T02:31:56;25.60;;;13.63;;
33926;SDS011;20485;50.992;5.550;2023-04-24T02:34:22;29.98;;;13.13;;
33926;SDS011;20485;50.992;5.550;2023-04-24T02:36:48;28.38;;;13.60;;
33926;SDS011;20485;50.992;5.550;2023-04-24T02:39:14;31.23;;;13.88;;
33926;SDS011;20485;50.992;5.550;2023-04-24T02:41:43;27.23;;;14.10;;
33926;SDS011;20485;50.992;5.550;2023-04-24T02:44:09;24.08;;;14.07;;
33926;SDS011;20485;50.992;5.550;2023-04-24T02:46:35;35.45;;;13.80;;
33926;SDS011;20485;50.992;5.550;2023-04-24T02:49:01;25.92;;;13.45;;
33926;SDS011;20485;50.992;5.550;2023-04-24T02:51:27;27.95;;;13.55;;
33926;SDS011;20485;50.992;5.550;2023-04-24T02:53:53;25.13;;;13.05;;
33926;SDS011;20485;50.992;5.550;2023-04-24T02:56:19;23.33;;;12.00;;
33926;SDS011;20485;50.992;5.550;2023-04-24T02:58:45;19.40;;;12.70;;
33926;SDS011;20485;50.992;5.550;2023-04-24T03:01:10;24.45;;;12.52;;
33926;SDS011;20485;50.992;5.550;2023-04-24T03:03:37;24.15;;;12.32;;
33926;SDS011;20485;50.992;5.550;2023-04-24T03:06:03;25.25;;;11.68;;
33926;SDS011;20485;50.992;5.550;2023-04-24T03:08:31;22.83;;;11.98;;
33926;SDS011;20485;50.992;5.550;2023-04-24T03:10:57;17.65;;;11.75;;
33926;SDS011;20485;50.992;5.550;2023-04-24T03:13:22;23.08;;;11.63;;
33926;SDS011;20485;50.992;5.550;2023-04-24T03:15:48;27.13;;;13.27;;
33926;SDS011;20485;50.992;5.550;2023-04-24T03:18:18;22.15;;;11.85;;
33926;SDS011;20485;50.992;5.550;2023-04-24T03:20:45;20.95;;;12.25;;
33926;SDS011;20485;50.992;5.550;2023-04-24T03:23:12;22.48;;;12.10;;
33926;SDS011;20485;50.992;5.550;2023-04-24T03:25:38;26.15;;;11.90;;
33926;SDS011;20485;50.992;5.550;2023-04-24T03:28:03;23.88;;;12.00;;
33926;SDS011;20485;50.992;5.550;2023-04-24T03:30:29;23.25;;;12.05;;
33926;SDS011;20485;50.992;5.550;2023-04-24T03:32:55;17.08;;;11.57;;
33926;SDS011;20485;50.992;5.550;2023-04-24T03:35:21;27.13;;;12.70;;
33926;SDS011;20485;50.992;5.550;2023-04-24T03:37:47;20.83;;;12.40;;
33926;SDS011;20485;50.992;5.550;2023-04-24T03:40:13;24.67;;;11.55;;
33926;SDS011;20485;50.992;5.550;2023-04-24T03:42:38;23.95;;;12.25;;
33926;SDS011;20485;50.992;5.550;2023-04-24T03:45:04;20.10;;;12.07;;
33926;SDS011;20485;50.992;5.550;2023-04-24T03:47:31;21.17;;;12.02;;
33926;SDS011;20485;50.992;5.550;2023-04-24T03:49:56;25.95;;;12.45;;
33926;SDS011;20485;50.992;5.550;2023-04-24T03:52:22;21.70;;;13.18;;
33926;SDS011;20485;50.992;5.550;2023-04-24T03:54:48;24.10;;;13.23;;
33926;SDS011;20485;50.992;5.550;2023-04-24T03:57:13;29.30;;;13.50;;
33926;SDS011;20485;50.992;5.550;2023-04-24T03:59:39;21.92;;;12.98;;
33926;SDS011;20485;50.992;5.550;2023-04-24T04:02:05;24.08;;;12.48;;
33926;SDS011;20485;50.992;5.550;2023-04-24T04:04:31;20.67;;;12.93;;
33926;SDS011;20485;50.992;5.550;2023-04-24T04:06:56;25.90;;;13.63;;
33926;SDS011;20485;50.992;5.550;2023-04-24T04:09:26;21.17;;;13.30;;
33926;SDS011;20485;50.992;5.550;2023-04-24T04:11:52;29.70;;;13.95;;
33926;SDS011;20485;50.992;5.550;2023-04-24T04:14:17;21.50;;;12.68;;
33926;SDS011;20485;50.992;5.550;2023-04-24T04:16:43;24.67;;;12.65;;
33926;SDS011;20485;50.992;5.550;2023-04-24T04:19:09;26.38;;;12.57;;
33926;SDS011;20485;50.992;5.550;2023-04-24T04:21:34;21.75;;;13.15;;
33926;SDS011;20485;50.992;5.550;2023-04-24T04:24:00;18.83;;;12.85;;
33926;SDS011;20485;50.992;5.550;2023-04-24T04:26:26;25.75;;;13.23;;
33926;SDS011;20485;50.992;5.550;2023-04-24T04:28:52;29.33;;;12.60;;
33926;SDS011;20485;50.992;5.550;2023-04-24T04:31:19;23.00;;;12.48;;
33926;SDS011;20485;50.992;5.550;2023-04-24T04:33:45;22.42;;;12.65;;
33926;SDS011;20485;50.992;5.550;2023-04-24T04:36:11;20.17;;;11.77;;
33926;SDS011;20485;50.992;5.550;2023-04-24T04:38:37;23.17;;;12.05;;
33926;SDS011;20485;50.992;5.550;2023-04-24T04:41:03;18.10;;;11.38;;
33926;SDS011;20485;50.992;5.550;2023-04-24T04:43:28;20.98;;;12.45;;
33926;SDS011;20485;50.992;5.550;2023-04-24T04:45:55;24.00;;;12.10;;
33926;SDS011;20485;50.992;5.550;2023-04-24T04:48:22;20.33;;;11.90;;
33926;SDS011;20485;50.992;5.550;2023-04-24T04:50:48;17.83;;;10.77;;
33926;SDS011;20485;50.992;5.550;2023-04-24T04:53:14;21.73;;;10.73;;
33926;SDS011;20485;50.992;5.550;2023-04-24T04:55:40;21.35;;;11.52;;
33926;SDS011;20485;50.992;5.550;2023-04-24T04:58:06;21.00;;;12.15;;
33926;SDS011;20485;50.992;5.550;2023-04-24T05:00:31;18.27;;;11.10;;
33926;SDS011;20485;50.992;5.550;2023-04-24T05:03:00;20.88;;;11.18;;
33926;SDS011;20485;50.992;5.550;2023-04-24T05:05:26;21.63;;;11.40;;
33926;SDS011;20485;50.992;5.550;2023-04-24T05:07:52;20.58;;;10.82;;
33926;SDS011;20485;50.992;5.550;2023-04-24T05:10:20;18.45;;;11.00;;
33926;SDS011;20485;50.992;5.550;2023-04-24T05:12:46;17.98;;;11.45;;
33926;SDS011;20485;50.992;5.550;2023-04-24T05:15:12;17.65;;;10.55;;
33926;SDS011;20485;50.992;5.550;2023-04-24T05:17:37;18.98;;;10.25;;
33926;SDS011;20485;50.992;5.550;2023-04-24T05:20:05;16.20;;;9.88;;
33926;SDS011;20485;50.992;5.550;2023-04-24T05:22:31;18.75;;;9.80;;
33926;SDS011;20485;50.992;5.550;2023-04-24T05:24:57;16.00;;;9.60;;
33926;SDS011;20485;50.992;5.550;2023-04-24T05:27:23;16.92;;;9.40;;
33926;SDS011;20485;50.992;5.550;2023-04-24T05:29:50;15.43;;;8.68;;
33926;SDS011;20485;50.992;5.550;2023-04-24T05:32:16;18.92;;;8.23;;
33926;SDS011;20485;50.992;5.550;2023-04-24T05:34:41;14.27;;;7.72;;
33926;SDS011;20485;50.992;5.550;2023-04-24T05:37:07;14.80;;;8.75;;
33926;SDS011;20485;50.992;5.550;2023-04-24T05:39:34;13.32;;;7.43;;
33926;SDS011;20485;50.992;5.550;2023-04-24T05:42:01;16.52;;;8.35;;
33926;SDS011;20485;50.992;5.550;2023-04-24T05:44:28;12.27;;;7.25;;
33926;SDS011;20485;50.992;5.550;2023-04-24T05:46:53;14.40;;;6.90;;
33926;SDS011;20485;50.992;5.550;2023-04-24T05:49:20;10.57;;;6.45;;
33926;SDS011;20485;50.992;5.550;2023-04-24T06:02:49;11.40;;;6.05;;
33926;SDS011;20485;50.992;5.550;2023-04-24T06:05:16;10.68;;;6.30;;
33926;SDS011;20485;50.992;5.550;2023-04-24T06:07:44;9.50;;;5.97;;
33926;SDS011;20485;50.992;5.550;2023-04-24T06:10:09;16.00;;;6.05;;
33926;SDS011;20485;50.992;5.550;2023-04-24T06:12:35;10.23;;;5.78;;
33926;SDS011;20485;50.992;5.550;2023-04-24T06:15:01;14.75;;;6.07;;
33926;SDS011;20485;50.992;5.550;2023-04-24T06:17:28;14.13;;;5.93;;
33926;SDS011;20485;50.992;5.550;2023-04-24T06:19:54;11.43;;;6.00;;
33926;SDS011;20485;50.992;5.550;2023-04-24T06:22:19;11.25;;;5.82;;
33926;SDS011;20485;50.992;5.550;2023-04-24T06:24:45;13.18;;;6.68;;
33926;SDS011;20485;50.992;5.550;2023-04-24T06:27:12;12.38;;;6.40;;
33926;SDS011;20485;50.992;5.550;2023-04-24T06:29:37;10.82;;;7.35;;
33926;SDS011;20485;50.992;5.550;2023-04-24T06:32:03;14.50;;;7.05;;
33926;SDS011;20485;50.992;5.550;2023-04-24T06:34:29;12.25;;;6.57;;
33926;SDS011;20485;50.992;5.550;2023-04-24T06:36:55;14.27;;;6.65;;
33926;SDS011;20485;50.992;5.550;2023-04-24T06:39:21;16.27;;;7.10;;
33926;SDS011;20485;50.992;5.550;2023-04-24T06:41:47;14.70;;;6.60;;
33926;SDS011;20485;50.992;5.550;2023-04-24T06:44:13;13.60;;;7.28;;
33926;SDS011;20485;50.992;5.550;2023-04-24T06:46:39;20.52;;;8.48;;
33926;SDS011;20485;50.992;5.550;2023-04-24T06:49:06;21.73;;;8.73;;
33926;SDS011;20485;50.992;5.550;2023-04-24T06:51:31;18.20;;;8.02;;
33926;SDS011;20485;50.992;5.550;2023-04-24T06:53:58;18.90;;;8.15;;
33926;SDS011;20485;50.992;5.550;2023-04-24T06:56:24;18.90;;;8.38;;
33926;SDS011;20485;50.992;5.550;2023-04-24T06:58:50;15.27;;;7.07;;
33926;SDS011;20485;50.992;5.550;2023-04-24T07:01:16;13.63;;;7.28;;
33926;SDS011;20485;50.992;5.550;2023-04-24T07:03:42;18.25;;;7.28;;
33926;SDS011;20485;50.992;5.550;2023-04-24T07:06:08;18.20;;;7.53;;
33926;SDS011;20485;50.992;5.550;2023-04-24T07:08:36;14.40;;;8.02;;
33926;SDS011;20485;50.992;5.550;2023-04-24T07:11:02;17.92;;;8.15;;
33926;SDS011;20485;50.992;5.550;2023-04-24T07:13:27;13.20;;;7.55;;
33926;SDS011;20485;50.992;5.550;2023-04-24T07:15:53;14.50;;;8.63;;
33926;SDS011;20485;50.992;5.550;2023-04-24T07:18:22;15.23;;;7.75;;
33926;SDS011;20485;50.992;5.550;2023-04-24T07:20:48;14.52;;;7.90;;
33926;SDS011;20485;50.992;5.550;2023-04-24T07:23:17;14.05;;;7.97;;
33926;SDS011;20485;50.992;5.550;2023-04-24T07:25:44;19.58;;;8.38;;
33926;SDS011;20485;50.992;5.550;2023-04-24T07:28:10;20.45;;;8.52;;
33926;SDS011;20485;50.992;5.550;2023-04-24T07:30:35;16.55;;;7.72;;
33926;SDS011;20485;50.992;5.550;2023-04-24T07:33:01;17.77;;;9.02;;
33926;SDS011;20485;50.992;5.550;2023-04-24T07:35:27;18.23;;;7.57;;
33926;SDS011;20485;50.992;5.550;2023-04-24T07:37:53;14.23;;;7.32;;
33926;SDS011;20485;50.992;5.550;2023-04-24T07:40:19;14.27;;;8.10;;
33926;SDS011;20485;50.992;5.550;2023-04-24T07:42:44;17.23;;;8.05;;
33926;SDS011;20485;50.992;5.550;2023-04-24T07:45:10;17.13;;;8.55;;
33926;SDS011;20485;50.992;5.550;2023-04-24T07:47:36;12.68;;;7.70;;
33926;SDS011;20485;50.992;5.550;2023-04-24T07:50:04;19.88;;;8.30;;
33926;SDS011;20485;50.992;5.550;2023-04-24T07:52:30;14.60;;;7.20;;
33926;SDS011;20485;50.992;5.550;2023-04-24T07:54:56;15.95;;;7.50;;
33926;SDS011;20485;50.992;5.550;2023-04-24T07:57:24;13.23;;;6.72;;
33926;SDS011;20485;50.992;5.550;2023-04-24T07:59:50;11.90;;;6.75;;
33926;SDS011;20485;50.992;5.550;2023-04-24T08:02:16;11.65;;;6.60;;
33926;SDS011;20485;50.992;5.550;2023-04-24T08:04:42;16.65;;;7.32;;
33926;SDS011;20485;50.992;5.550;2023-04-24T08:07:08;9.05;;;5.53;;
33926;SDS011;20485;50.992;5.550;2023-04-24T08:09:33;7.93;;;5.53;;
33926;SDS011;20485;50.992;5.550;2023-04-24T08:11:59;12.68;;;6.95;;
33926;SDS011;20485;50.992;5.550;2023-04-24T08:14:26;15.45;;;7.30;;
33926;SDS011;20485;50.992;5.550;2023-04-24T08:16:53;11.23;;;6.80;;
33926;SDS011;20485;50.992;5.550;2023-04-24T08:19:20;13.07;;;6.22;;
33926;SDS011;20485;50.992;5.550;2023-04-24T08:21:45;14.95;;;6.65;;
33926;SDS011;20485;50.992;5.550;2023-04-24T08:24:11;19.13;;;7.28;;
33926;SDS011;20485;50.992;5.550;2023-04-24T08:26:36;16.30;;;6.65;;
33926;SDS011;20485;50.992;5.550;2023-04-24T08:29:02;14.10;;;6.70;;
33926;SDS011;20485;50.992;5.550;2023-04-24T08:31:28;13.70;;;6.40;;
33926;SDS011;20485;50.992;5.550;2023-04-24T08:33:54;13.43;;;6.93;;
33926;SDS011;20485;50.992;5.550;2023-04-24T08:36:20;14.70;;;6.90;;
33926;SDS011;20485;50.992;5.550;2023-04-24T08:38:46;12.55;;;6.85;;
33926;SDS011;20485;50.992;5.550;2023-04-24T08:41:11;13.18;;;6.70;;
33926;SDS011;20485;50.992;5.550;2023-04-24T08:43:40;13.48;;;6.90;;
33926;SDS011;20485;50.992;5.550;2023-04-24T08:46:07;11.88;;;5.95;;
33926;SDS011;20485;50.992;5.550;2023-04-24T08:48:33;14.80;;;7.63;;
33926;SDS011;20485;50.992;5.550;2023-04-24T08:50:59;12.30;;;6.15;;
33926;SDS011;20485;50.992;5.550;2023-04-24T08:53:27;13.45;;;7.07;;
33926;SDS011;20485;50.992;5.550;2023-04-24T08:55:54;14.25;;;7.13;;
33926;SDS011;20485;50.992;5.550;2023-04-24T08:58:21;16.17;;;6.95;;
33926;SDS011;20485;50.992;5.550;2023-04-24T09:00:50;13.75;;;7.15;;
33926;SDS011;20485;50.992;5.550;2023-04-24T09:03:19;19.75;;;7.45;;
33926;SDS011;20485;50.992;5.550;2023-04-24T09:05:47;14.60;;;7.55;;
33926;SDS011;20485;50.992;5.550;2023-04-24T09:08:14;18.17;;;7.43;;
33926;SDS011;20485;50.992;5.550;2023-04-24T09:10:53;23.45;;;8.35;;
33926;SDS011;20485;50.992;5.550;2023-04-24T09:13:19;19.15;;;8.80;;
33926;SDS011;20485;50.992;5.550;2023-04-24T09:15:45;16.83;;;7.65;;
33926;SDS011;20485;50.992;5.550;2023-04-24T09:18:11;22.63;;;7.15;;
33926;SDS011;20485;50.992;5.550;2023-04-24T09:23:35;16.83;;;7.03;;
33926;SDS011;20485;50.992;5.550;2023-04-24T09:26:01;26.83;;;7.93;;
33926;SDS011;20485;50.992;5.550;2023-04-24T09:28:30;24.20;;;8.13;;
33926;SDS011;20485;50.992;5.550;2023-04-24T09:31:08;19.90;;;6.97;;
33926;SDS011;20485;50.992;5.550;2023-04-24T09:33:35;20.20;;;6.53;;
33926;SDS011;20485;50.992;5.550;2023-04-24T09:36:01;13.48;;;6.28;;
33926;SDS011;20485;50.992;5.550;2023-04-24T09:38:31;24.23;;;6.57;;
33926;SDS011;20485;50.992;5.550;2023-04-24T09:41:00;17.15;;;6.63;;
33926;SDS011;20485;50.992;5.550;2023-04-24T09:43:28;17.85;;;5.28;;
33926;SDS011;20485;50.992;5.550;2023-04-24T09:45:57;21.05;;;5.35;;
33926;SDS011;20485;50.992;5.550;2023-04-24T09:48:34;11.45;;;4.80;;
33926;SDS011;20485;50.992;5.550;2023-04-24T09:51:04;13.30;;;4.00;;
33926;SDS011;20485;50.992;5.550;2023-04-24T09:53:36;10.35;;;3.70;;
33926;SDS011;20485;50.992;5.550;2023-04-24T09:56:02;13.75;;;4.38;;
33926;SDS011;20485;50.992;5.550;2023-04-24T09:58:34;12.23;;;4.32;;
33926;SDS011;20485;50.992;5.550;2023-04-24T10:01:00;11.20;;;4.57;;
33926;SDS011;20485;50.992;5.550;2023-04-24T10:03:27;15.52;;;4.63;;
33926;SDS011;20485;50.992;5.550;2023-04-24T10:05:58;15.35;;;6.95;;
33926;SDS011;20485;50.992;5.550;2023-04-24T10:08:33;18.13;;;5.85;;
33926;SDS011;20485;50.992;5.550;2023-04-24T10:11:00;19.58;;;7.15;;
33926;SDS011;20485;50.992;5.550;2023-04-24T10:13:26;16.05;;;6.35;;
33926;SDS011;20485;50.992;5.550;2023-04-24T10:15:53;18.83;;;5.22;;
33926;SDS011;20485;50.992;5.550;2023-04-24T10:18:20;21.27;;;5.50;;
33926;SDS011;20485;50.992;5.550;2023-04-24T10:20:46;18.55;;;6.07;;
33926;SDS011;20485;50.992;5.550;2023-04-24T10:23:12;17.00;;;6.38;;
33926;SDS011;20485;50.992;5.550;2023-04-24T10:25:38;22.27;;;6.10;;
33926;SDS011;20485;50.992;5.550;2023-04-24T10:28:04;18.67;;;5.97;;
33926;SDS011;20485;50.992;5.550;2023-04-24T10:30:31;19.45;;;5.63;;
33926;SDS011;20485;50.992;5.550;2023-04-24T10:33:04;13.73;;;5.32;;
33926;SDS011;20485;50.992;5.550;2023-04-24T10:35:31;23.58;;;6.07;;
33926;SDS011;20485;50.992;5.550;2023-04-24T10:40:33;15.95;;;5.55;;
33926;SDS011;20485;50.992;5.550;2023-04-24T10:43:04;21.13;;;6.57;;
33926;SDS011;20485;50.992;5.550;2023-04-24T10:45:33;23.10;;;5.82;;
33926;SDS011;20485;50.992;5.550;2023-04-24T10:50:27;24.42;;;5.53;;
33926;SDS011;20485;50.992;5.550;2023-04-24T10:53:04;17.45;;;5.80;;
33926;SDS011;20485;50.992;5.550;2023-04-24T10:58:13;21.65;;;5.50;;
33926;SDS011;20485;50.992;5.550;2023-04-24T11:00:41;15.00;;;4.55;;
33926;SDS011;20485;50.992;5.550;2023-04-24T11:03:25;13.48;;;4.55;;
33926;SDS011;20485;50.992;5.550;2023-04-24T11:08:22;13.07;;;4.07;;
33926;SDS011;20485;50.992;5.550;2023-04-24T11:10:57;13.13;;;3.90;;
33926;SDS011;20485;50.992;5.550;2023-04-24T11:13:25;14.55;;;4.95;;
33926;SDS011;20485;50.992;5.550;2023-04-24T11:16:12;13.27;;;3.92;;
33926;SDS011;20485;50.992;5.550;2023-04-24T11:32:14;14.63;;;4.25;;
33926;SDS011;20485;50.992;5.550;2023-04-24T11:35:06;13.23;;;3.92;;
33926;SDS011;20485;50.992;5.550;2023-04-24T11:37:37;18.25;;;4.72;;
33926;SDS011;20485;50.992;5.550;2023-04-24T11:40:08;9.40;;;4.10;;
33926;SDS011;20485;50.992;5.550;2023-04-24T11:42:36;11.60;;;4.45;;
33926;SDS011;20485;50.992;5.550;2023-04-24T11:45:07;18.58;;;5.28;;
33926;SDS011;20485;50.992;5.550;2023-04-24T11:47:34;11.15;;;4.75;;
33926;SDS011;20485;50.992;5.550;2023-04-24T11:50:04;13.68;;;4.40;;
33926;SDS011;20485;50.992;5.550;2023-04-24T11:52:33;13.43;;;4.32;;
33926;SDS011;20485;50.992;5.550;2023-04-24T11:55:02;11.48;;;4.90;;
33926;SDS011;20485;50.992;5.550;2023-04-24T11:57:28;17.20;;;4.97;;
33926;SDS011;20485;50.992;5.550;2023-04-24T11:59:59;12.30;;;5.15;;
33926;SDS011;20485;50.992;5.550;2023-04-24T12:02:30;7.22;;;3.63;;
33926;SDS011;20485;50.992;5.550;2023-04-24T12:04:56;9.07;;;3.42;;
33926;SDS011;20485;50.992;5.550;2023-04-24T12:07:22;8.70;;;4.03;;
33926;SDS011;20485;50.992;5.550;2023-04-24T12:09:55;15.00;;;4.80;;
33926;SDS011;20485;50.992;5.550;2023-04-24T12:12:24;11.50;;;4.30;;
33926;SDS011;20485;50.992;5.550;2023-04-24T12:14:55;14.85;;;5.25;;
33926;SDS011;20485;50.992;5.550;2023-04-24T12:17:31;14.25;;;5.47;;
33926;SDS011;20485;50.992;5.550;2023-04-24T12:19:59;12.98;;;5.00;;
33926;SDS011;20485;50.992;5.550;2023-04-24T12:22:26;9.02;;;4.85;;
33926;SDS011;20485;50.992;5.550;2023-04-24T12:24:55;13.57;;;5.75;;
33926;SDS011;20485;50.992;5.550;2023-04-24T12:27:22;13.40;;;5.75;;
33926;SDS011;20485;50.992;5.550;2023-04-24T12:29:51;8.57;;;5.03;;
33926;SDS011;20485;50.992;5.550;2023-04-24T12:32:20;10.70;;;4.57;;
33926;SDS011;20485;50.992;5.550;2023-04-24T12:34:46;19.13;;;5.43;;
33926;SDS011;20485;50.992;5.550;2023-04-24T12:37:11;8.18;;;4.05;;
33926;SDS011;20485;50.992;5.550;2023-04-24T12:39:37;11.68;;;4.40;;
33926;SDS011;20485;50.992;5.550;2023-04-24T12:42:03;11.98;;;4.60;;
33926;SDS011;20485;50.992;5.550;2023-04-24T12:44:32;13.10;;;5.15;;
33926;SDS011;20485;50.992;5.550;2023-04-24T12:46:59;10.80;;;5.30;;
33926;SDS011;20485;50.992;5.550;2023-04-24T12:49:26;15.52;;;5.65;;
33926;SDS011;20485;50.992;5.550;2023-04-24T12:51:53;16.33;;;5.35;;
33926;SDS011;20485;50.992;5.550;2023-04-24T12:54:19;12.63;;;5.57;;
33926;SDS011;20485;50.992;5.550;2023-04-24T12:56:45;11.30;;;5.07;;
33926;SDS011;20485;50.992;5.550;2023-04-24T12:59:11;17.30;;;5.70;;
33926;SDS011;20485;50.992;5.550;2023-04-24T13:01:36;11.32;;;5.45;;
33926;SDS011;20485;50.992;5.550;2023-04-24T13:04:02;14.13;;;5.57;;
33926;SDS011;20485;50.992;5.550;2023-04-24T13:06:28;16.73;;;5.63;;
33926;SDS011;20485;50.992;5.550;2023-04-24T13:08:53;12.60;;;5.30;;
33926;SDS011;20485;50.992;5.550;2023-04-24T13:11:20;15.57;;;6.53;;
33926;SDS011;20485;50.992;5.550;2023-04-24T13:13:47;18.52;;;6.50;;
33926;SDS011;20485;50.992;5.550;2023-04-24T13:16:12;17.30;;;5.88;;
33926;SDS011;20485;50.992;5.550;2023-04-24T13:18:38;14.30;;;5.50;;
33926;SDS011;20485;50.992;5.550;2023-04-24T13:21:04;11.80;;;4.60;;
33926;SDS011;20485;50.992;5.550;2023-04-24T13:23:30;15.82;;;5.00;;
33926;SDS011;20485;50.992;5.550;2023-04-24T13:25:55;11.90;;;4.63;;
33926;SDS011;20485;50.992;5.550;2023-04-24T13:28:24;14.13;;;4.57;;
33926;SDS011;20485;50.992;5.550;2023-04-24T13:30:50;16.15;;;4.28;;
33926;SDS011;20485;50.992;5.550;2023-04-24T13:33:16;9.00;;;4.03;;
33926;SDS011;20485;50.992;5.550;2023-04-24T13:35:42;9.75;;;4.57;;
33926;SDS011;20485;50.992;5.550;2023-04-24T13:38:07;9.70;;;3.75;;
33926;SDS011;20485;50.992;5.550;2023-04-24T13:40:33;12.95;;;3.97;;
33926;SDS011;20485;50.992;5.550;2023-04-24T13:42:59;11.18;;;3.92;;
33926;SDS011;20485;50.992;5.550;2023-04-24T13:45:25;10.57;;;4.30;;
33926;SDS011;20485;50.992;5.550;2023-04-24T13:47:52;12.73;;;4.45;;
33926;SDS011;20485;50.992;5.550;2023-04-24T13:50:22;11.23;;;3.80;;
33926;SDS011;20485;50.992;5.550;2023-04-24T13:52:47;12.30;;;3.70;;
33926;SDS011;20485;50.992;5.550;2023-04-24T13:55:16;13.15;;;4.50;;
33926;SDS011;20485;50.992;5.550;2023-04-24T13:57:41;11.88;;;3.72;;
33926;SDS011;20485;50.992;5.550;2023-04-24T14:00:07;11.95;;;3.97;;
33926;SDS011;20485;50.992;5.550;2023-04-24T14:02:35;9.18;;;4.22;;
33926;SDS011;20485;50.992;5.550;2023-04-24T14:05:01;11.52;;;3.92;;
33926;SDS011;20485;50.992;5.550;2023-04-24T14:07:28;12.55;;;4.22;;
33926;SDS011;20485;50.992;5.550;2023-04-24T14:09:54;9.43;;;3.90;;
33926;SDS011;20485;50.992;5.550;2023-04-24T14:12:20;6.95;;;2.97;;
33926;SDS011;20485;50.992;5.550;2023-04-24T14:14:46;10.85;;;3.42;;
33926;SDS011;20485;50.992;5.550;2023-04-24T14:17:13;9.98;;;2.60;;
33926;SDS011;20485;50.992;5.550;2023-04-24T14:19:39;10.43;;;3.20;;
33926;SDS011;20485;50.992;5.550;2023-04-24T14:22:05;9.27;;;3.35;;
33926;SDS011;20485;50.992;5.550;2023-04-24T14:24:34;9.25;;;3.25;;
33926;SDS011;20485;50.992;5.550;2023-04-24T14:27:00;11.75;;;3.10;;
33926;SDS011;20485;50.992;5.550;2023-04-24T14:29:26;11.20;;;3.78;;
33926;SDS011;20485;50.992;5.550;2023-04-24T14:31:52;8.35;;;3.10;;
33926;SDS011;20485;50.992;5.550;2023-04-24T14:34:17;7.75;;;2.70;;
33926;SDS011;20485;50.992;5.550;2023-04-24T14:36:44;8.65;;;2.72;;
33926;SDS011;20485;50.992;5.550;2023-04-24T14:39:10;11.98;;;2.47;;
33926;SDS011;20485;50.992;5.550;2023-04-24T14:41:37;5.70;;;2.50;;
33926;SDS011;20485;50.992;5.550;2023-04-24T14:44:04;6.30;;;2.20;;
33926;SDS011;20485;50.992;5.550;2023-04-24T14:46:30;6.97;;;2.55;;
33926;SDS011;20485;50.992;5.550;2023-04-24T14:48:56;6.97;;;2.10;;
33926;SDS011;20485;50.992;5.550;2023-04-24T14:51:22;6.20;;;2.30;;
33926;SDS011;20485;50.992;5.550;2023-04-24T14:53:51;9.05;;;2.67;;
33926;SDS011;20485;50.992;5.550;2023-04-24T14:56:20;10.23;;;2.47;;
33926;SDS011;20485;50.992;5.550;2023-04-24T14:58:46;4.85;;;1.90;;
33926;SDS011;20485;50.992;5.550;2023-04-24T15:01:12;11.55;;;2.20;;
33926;SDS011;20485;50.992;5.550;2023-04-24T15:03:38;8.52;;;2.70;;
33926;SDS011;20485;50.992;5.550;2023-04-24T15:06:04;5.45;;;2.42;;